Time;durP1;ratioP1;P1;durP2;ratioP2;P2;SDS_P1;SDS_P2;PMS_P1;PMS_P2;Temp;Humidity;BMP_temperature;BMP_pressure;BME280_temperature;BME280_humidity;BME280_pressure;Samples;Min_cycle;Max_cycle;Signal;HPM_P1;HPM_P2
2021/12/28 00:00:08;;;;;;;4.13;1.30;;;;;;;5.30;100.00;94848.69;5003665;28;20037;-82
2021/12/28 00:02:38;;;;;;;6.00;1.60;;;;;;;5.19;100.00;94848.03;5026404;28;20050;-80
2021/12/28 00:05:06;;;;;;;7.37;2.13;;;;;;;5.10;100.00;94845.59;5038949;28;20029;-81
2021/12/28 00:07:32;;;;;;;5.00;2.10;;;;;;;5.03;100.00;94844.56;5015413;28;20041;-82
2021/12/28 00:09:58;;;;;;;2.97;1.63;;;;;;;4.95;100.00;94838.38;4997186;28;20029;-82
2021/12/28 00:12:24;;;;;;;2.90;1.40;;;;;;;4.90;100.00;94835.44;5017040;28;20844;-82
2021/12/28 00:15:30;;;;;;;4.93;1.40;;;;;;;4.84;100.00;94845.69;4998393;28;20067;-82
2021/12/28 00:20:24;;;;;;;5.33;1.27;;;;;;;4.70;100.00;94841.91;5020816;28;20044;-81
2021/12/28 00:22:50;;;;;;;4.13;1.40;;;;;;;4.66;100.00;94843.16;5023588;28;20521;-82
2021/12/28 00:25:16;;;;;;;3.77;1.10;;;;;;;4.53;100.00;94837.56;4996170;28;20057;-82
2021/12/28 00:27:42;;;;;;;3.40;1.60;;;;;;;4.49;100.00;94837.06;4995015;28;20040;-81
2021/12/28 00:30:09;;;;;;;4.60;1.57;;;;;;;4.44;100.00;94834.94;5009792;28;20038;-81
2021/12/28 00:32:35;;;;;;;6.77;2.33;;;;;;;4.37;100.00;94831.34;5019900;28;20933;-81
2021/12/28 00:35:02;;;;;;;4.17;1.37;;;;;;;4.34;100.00;94836.03;4998373;28;20119;-80
2021/12/28 00:37:28;;;;;;;5.33;1.37;;;;;;;4.34;100.00;94836.03;5017925;28;20032;-80
2021/12/28 00:39:53;;;;;;;3.93;1.50;;;;;;;4.32;100.00;94835.38;5021948;28;20041;-82
2021/12/28 00:42:20;;;;;;;3.33;1.10;;;;;;;4.21;100.00;94837.28;5015673;28;20036;-82
2021/12/28 00:44:46;;;;;;;3.37;1.10;;;;;;;4.11;100.00;94823.56;5021942;28;20037;-81
2021/12/28 00:47:12;;;;;;;4.83;1.23;;;;;;;4.15;100.00;94839.66;5003111;28;20125;-82
2021/12/28 00:49:45;;;;;;;4.20;1.20;;;;;;;4.04;100.00;94839.94;5004015;28;20049;-82
2021/12/28 00:52:10;;;;;;;8.32;1.38;;;;;;;4.03;100.00;94835.72;5008847;28;20399;-76
2021/12/28 00:54:36;;;;;;;5.23;1.50;;;;;;;3.98;100.00;94844.78;5013298;28;20045;-77
2021/12/28 00:57:02;;;;;;;6.57;1.50;;;;;;;3.92;100.00;94842.81;4991897;28;20156;-76
2021/12/28 00:59:28;;;;;;;8.03;2.00;;;;;;;3.86;100.00;94838.22;5020839;28;20401;-76
2021/12/28 01:01:55;;;;;;;3.37;1.50;;;;;;;3.82;100.00;94839.47;5023451;28;20049;-77
2021/12/28 01:04:20;;;;;;;4.70;1.53;;;;;;;3.75;100.00;94839.25;5000106;28;20179;-77
2021/12/28 01:06:46;;;;;;;5.73;1.60;;;;;;;3.75;100.00;94838.44;5027836;28;20112;-77
2021/12/28 01:09:12;;;;;;;6.13;1.60;;;;;;;3.74;100.00;94837.63;5002973;28;20033;-77
2021/12/28 01:11:38;;;;;;;3.83;1.57;;;;;;;3.82;100.00;94836.84;4993488;28;20040;-79
2021/12/28 01:14:04;;;;;;;5.80;1.30;;;;;;;3.73;100.00;94830.00;5003677;28;20032;-77
2021/12/28 01:16:29;;;;;;;4.17;1.27;;;;;;;3.64;100.00;94825.69;5030523;28;20033;-77
2021/12/28 01:18:55;;;;;;;9.30;1.43;;;;;;;3.52;100.00;94823.34;4999647;28;20120;-77
2021/12/28 01:21:21;;;;;;;6.00;1.40;;;;;;;3.50;100.00;94825.25;5001850;28;20040;-78
2021/12/28 01:23:47;;;;;;;5.03;1.50;;;;;;;3.52;100.00;94832.91;5023163;28;20035;-78
2021/12/28 01:26:12;;;;;;;5.53;1.40;;;;;;;3.66;100.00;94828.97;5022542;28;20025;-77
2021/12/28 01:28:39;;;;;;;6.33;1.50;;;;;;;3.64;100.00;94817.88;5019411;28;20084;-79
2021/12/28 01:31:05;;;;;;;6.47;1.67;;;;;;;3.70;100.00;94831.09;5024665;28;20565;-76
2021/12/28 01:33:31;;;;;;;5.30;1.43;;;;;;;3.76;100.00;94822.69;5002030;28;20034;-77
2021/12/28 01:35:58;;;;;;;5.37;1.20;;;;;;;3.77;100.00;94820.91;5003476;28;20034;-77
2021/12/28 01:38:24;;;;;;;7.20;1.50;;;;;;;3.83;100.00;94815.09;5012129;28;20577;-76
2021/12/28 07:06:48;;;;;;;10.73;3.43;;;;;;;5.54;100.00;94566.34;5036416;28;20050;-82
2021/12/28 07:09:14;;;;;;;8.13;2.37;;;;;;;5.64;100.00;94561.72;5010187;28;20116;-82
2021/12/28 07:11:40;;;;;;;8.13;2.47;;;;;;;5.59;100.00;94564.81;5037491;28;20495;-82
2021/12/28 07:14:12;;;;;;;9.83;3.30;;;;;;;5.59;100.00;94562.22;5036111;28;20895;-82
2021/12/28 07:16:44;;;;;;;10.67;3.47;;;;;;;5.54;100.00;94561.94;5020809;28;20033;-82
2021/12/28 07:19:11;;;;;;;11.20;3.93;;;;;;;5.53;100.00;94560.28;5054107;28;20059;-82
2021/12/28 07:21:40;;;;;;;7.87;2.97;;;;;;;5.44;100.00;94556.91;5031241;28;20024;-82
2021/12/28 07:24:07;;;;;;;9.80;3.20;;;;;;;5.51;100.00;94558.84;5037459;28;20522;-82
2021/12/28 07:26:34;;;;;;;4.30;1.93;;;;;;;5.51;100.00;94549.22;5057494;28;20159;-82
2021/12/28 07:29:00;;;;;;;6.03;2.80;;;;;;;5.44;100.00;94538.66;5045726;28;20511;-82
2021/12/28 07:31:27;;;;;;;5.03;2.07;;;;;;;5.54;100.00;94554.09;5018259;28;20114;-82
2021/12/28 07:33:53;;;;;;;6.70;2.17;;;;;;;5.49;100.00;94550.38;5040543;28;20039;-82
2021/12/28 07:36:19;;;;;;;3.17;1.53;;;;;;;5.44;100.00;94551.69;5026780;28;20032;-82
2021/12/28 07:38:44;;;;;;;7.03;2.20;;;;;;;5.41;100.00;94549.41;5039990;28;20029;-82
2021/12/28 07:41:10;;;;;;;5.07;1.83;;;;;;;5.40;100.00;94547.81;5025968;28;20030;-82
2021/12/28 07:43:43;;;;;;;5.10;2.03;;;;;;;5.48;100.00;94551.34;5030440;28;20024;-82
2021/12/28 07:46:09;;;;;;;4.88;2.70;;;;;;;5.53;100.00;94554.25;5048864;28;20029;-82
2021/12/28 07:48:35;;;;;;;4.03;1.93;;;;;;;5.52;100.00;94550.03;5050744;28;20520;-82
2021/12/28 07:51:00;;;;;;;5.80;2.00;;;;;;;5.56;100.00;94543.50;5051223;28;20037;-83
2021/12/28 07:53:26;;;;;;;5.00;1.97;;;;;;;5.59;100.00;94540.53;5035679;28;20040;-83
2021/12/28 07:55:54;;;;;;;4.73;1.60;;;;;;;5.68;100.00;94548.16;5043648;28;20024;-82
2021/12/28 07:58:19;;;;;;;4.33;1.87;;;;;;;5.74;100.00;94544.06;5015182;28;20045;-82
2021/12/28 08:00:45;;;;;;;6.23;1.70;;;;;;;5.71;100.00;94561.84;5041956;28;20037;-83
2021/12/28 08:03:11;;;;;;;3.40;1.33;;;;;;;5.73;100.00;94555.47;5032823;28;20093;-83
2021/12/28 08:05:37;;;;;;;4.87;1.30;;;;;;;5.78;100.00;94552.38;5039875;28;20103;-83
2021/12/28 08:08:09;;;;;;;3.43;1.47;;;;;;;5.83;100.00;94556.06;5024831;28;20033;-83
2021/12/28 08:10:35;;;;;;;2.07;1.23;;;;;;;5.80;100.00;94560.81;5036227;28;20434;-83
2021/12/28 08:13:01;;;;;;;3.60;1.10;;;;;;;5.82;100.00;94569.28;5020457;28;20037;-83
2021/12/28 08:15:27;;;;;;;3.00;1.47;;;;;;;5.72;100.00;94561.66;5014247;28;20482;-84
2021/12/28 08:17:52;;;;;;;2.70;1.30;;;;;;;5.71;100.00;94557.44;5025849;28;20495;-84
2021/12/28 08:20:19;;;;;;;4.40;1.40;;;;;;;5.70;100.00;94560.22;5040024;28;20124;-84
2021/12/28 08:22:48;;;;;;;5.83;1.60;;;;;;;5.71;100.00;94548.81;5027130;28;20049;-84
2021/12/28 08:25:17;;;;;;;4.17;1.50;;;;;;;5.73;100.00;94542.44;5043787;28;20119;-84
2021/12/28 08:27:45;;;;;;;5.33;1.93;;;;;;;5.74;100.00;94546.69;5040202;28;20029;-84
2021/12/28 08:30:12;;;;;;;4.97;1.80;;;;;;;5.80;100.00;94543.38;5025870;28;20025;-84
2021/12/28 08:32:39;;;;;;;5.93;1.50;;;;;;;5.74;100.00;94543.25;5039609;28;20040;-83
2021/12/28 08:35:06;;;;;;;4.33;1.33;;;;;;;5.78;100.00;94541.94;5044188;28;20056;-84
2021/12/28 08:37:33;;;;;;;5.43;1.73;;;;;;;5.86;100.00;94545.28;5031486;28;20494;-83
2021/12/28 08:39:59;;;;;;;2.97;1.40;;;;;;;5.89;100.00;94544.94;5027838;28;20522;-84
2021/12/28 08:42:25;;;;;;;5.77;1.30;;;;;;;5.96;100.00;94549.50;5018061;28;20410;-84
2021/12/28 08:44:51;;;;;;;2.80;1.20;;;;;;;5.99;100.00;94551.78;5054433;28;20085;-84
2021/12/28 08:47:19;;;;;;;2.47;1.27;;;;;;;5.93;100.00;94549.84;5017884;28;20028;-84
2021/12/28 08:49:45;;;;;;;4.30;1.10;;;;;;;5.93;100.00;94544.63;5016125;28;20151;-84
2021/12/28 08:52:23;;;;;;;5.17;2.00;;;;;;;5.92;100.00;94543.81;5037310;28;20485;-83
2021/12/28 08:54:49;;;;;;;3.77;1.50;;;;;;;5.93;100.00;94548.06;5056401;28;20478;-83
2021/12/28 08:57:19;;;;;;;6.77;2.17;;;;;;;5.96;100.00;94544.31;5061429;28;20568;-83
2021/12/28 08:59:45;;;;;;;3.63;1.43;;;;;;;5.98;100.00;94550.16;5042928;28;20099;-83
2021/12/28 09:02:11;;;;;;;5.37;1.60;;;;;;;5.97;100.00;94545.91;5035351;28;20039;-83
2021/12/28 09:04:43;;;;;;;2.80;1.53;;;;;;;5.99;100.00;94543.97;5044372;28;20051;-83
2021/12/28 09:07:10;;;;;;;2.97;1.37;;;;;;;6.06;100.00;94539.66;5040458;28;20036;-83
2021/12/28 09:09:36;;;;;;;2.90;1.40;;;;;;;6.06;100.00;94537.88;5047152;28;20021;-83
2021/12/28 09:12:04;;;;;;;3.63;1.23;;;;;;;6.01;100.00;94549.81;5034210;28;20128;-83
2021/12/28 09:14:30;;;;;;;4.60;1.90;;;;;;;6.02;100.00;94548.84;5025388;28;20020;-83
2021/12/28 09:16:56;;;;;;;3.17;1.50;;;;;;;5.99;100.00;94547.38;5044627;28;20033;-83
2021/12/28 09:19:22;;;;;;;2.40;1.40;;;;;;;6.04;100.00;94541.66;5025251;28;20044;-83
2021/12/28 09:21:48;;;;;;;4.17;1.50;;;;;;;6.06;100.00;94550.09;5039680;28;20025;-84
2021/12/28 09:24:16;;;;;;;3.03;1.40;;;;;;;6.05;100.00;94551.09;5026432;28;20028;-83
2021/12/28 09:26:42;;;;;;;3.77;1.57;;;;;;;6.07;100.00;94551.72;5045498;28;20029;-84
2021/12/28 09:29:09;;;;;;;5.00;2.00;;;;;;;6.04;100.00;94544.25;5034305;28;20039;-83
2021/12/28 09:31:35;;;;;;;3.60;1.57;;;;;;;6.02;100.00;94543.63;5051224;28;20039;-83
2021/12/28 09:34:01;;;;;;;6.27;2.30;;;;;;;6.01;100.00;94536.78;5039725;28;20072;-83
2021/12/28 09:36:26;;;;;;;4.50;1.80;;;;;;;6.07;100.00;94546.50;5042764;28;20082;-83
2021/12/28 09:38:52;;;;;;;5.47;1.80;;;;;;;6.11;100.00;94540.78;5037958;28;20494;-83
2021/12/28 09:41:18;;;;;;;3.07;1.77;;;;;;;6.18;100.00;94548.72;5050542;28;20040;-83
2021/12/28 09:43:44;;;;;;;5.17;1.70;;;;;;;6.28;100.00;94554.53;5018625;28;20048;-83
2021/12/28 09:46:10;;;;;;;3.77;1.97;;;;;;;6.36;100.00;94548.44;5056136;28;20243;-83
2021/12/28 09:48:36;;;;;;;4.90;1.60;;;;;;;6.41;100.00;94542.72;5026030;28;20488;-83
2021/12/28 09:51:04;;;;;;;3.33;1.60;;;;;;;6.48;100.00;94539.22;5045088;28;20036;-83
2021/12/28 09:53:35;;;;;;;3.60;1.30;;;;;;;6.57;100.00;94538.16;5054622;28;20056;-83
2021/12/28 09:56:05;;;;;;;3.33;1.73;;;;;;;6.66;100.00;94541.50;5025773;28;20057;-83
2021/12/28 09:58:39;;;;;;;3.03;1.53;;;;;;;6.74;100.00;94538.84;5037815;28;20118;-84
2021/12/28 10:01:09;;;;;;;3.67;1.40;;;;;;;6.75;100.00;94532.63;5048907;28;20499;-84
2021/12/28 10:03:38;;;;;;;3.90;1.70;;;;;;;6.74;100.00;94540.59;5040561;28;20040;-84
2021/12/28 10:06:15;;;;;;;2.67;1.10;;;;;;;6.74;100.00;94541.44;5045879;28;20159;-84
2021/12/28 10:08:42;;;;;;;2.43;1.13;;;;;;;6.70;100.00;94541.97;5042631;28;20036;-84
2021/12/28 10:11:08;;;;;;;3.03;1.20;;;;;;;6.71;100.00;94533.16;5030620;28;20017;-84
2021/12/28 10:13:35;;;;;;;3.57;1.27;;;;;;;6.71;100.00;94536.56;5040028;28;20036;-83
2021/12/28 10:16:01;;;;;;;4.77;1.63;;;;;;;6.78;100.00;94534.06;5015118;28;20288;-83
2021/12/28 10:18:27;;;;;;;3.40;1.50;;;;;;;6.82;100.00;94543.16;5049147;28;20024;-82
2021/12/28 10:20:58;;;;;;;3.13;1.03;;;;;;;6.82;100.00;94540.56;5034069;28;20652;-83
2021/12/28 10:23:29;;;;;;;2.93;1.27;;;;;;;6.83;100.00;94540.34;5026335;28;20863;-83
2021/12/28 10:26:00;;;;;;;4.83;1.57;;;;;;;6.82;100.00;94543.97;5034379;28;20132;-83
2021/12/28 10:28:35;;;;;;;6.23;2.10;;;;;;;6.81;100.00;94537.13;5038714;28;20056;-83
2021/12/28 10:31:04;;;;;;;3.13;1.50;;;;;;;6.91;100.00;94534.28;5036611;28;20538;-83
2021/12/28 10:33:34;;;;;;;6.33;2.30;;;;;;;6.85;100.00;94529.75;5014755;28;20082;-83
2021/12/28 10:36:08;;;;;;;4.55;1.30;;;;;;;6.84;100.00;94523.72;5048165;28;20651;-83
2021/12/28 10:38:38;;;;;;;4.17;1.90;;;;;;;6.90;100.00;94529.19;5056342;28;20034;-83
2021/12/28 10:41:16;;;;;;;3.50;1.50;;;;;;;6.98;100.00;94518.69;5019075;28;20040;-83
2021/12/28 10:43:45;;;;;;;1.90;1.17;;;;;;;7.02;100.00;94512.09;5036265;28;20740;-83
2021/12/28 10:46:16;;;;;;;1.97;0.90;;;;;;;7.05;100.00;94523.00;5031259;28;20127;-83
2021/12/28 10:48:49;;;;;;;1.00;0.50;;;;;;;7.12;100.00;94515.25;5032548;28;20041;-83
2021/12/28 10:51:24;;;;;;;4.30;0.67;;;;;;;7.38;100.00;94513.97;5038069;28;20048;-83
2021/12/28 10:54:05;;;;;;;1.10;0.80;;;;;;;7.55;100.00;94510.19;5011783;28;20033;-83
2021/12/28 10:56:40;;;;;;;2.13;0.77;;;;;;;7.74;100.00;94511.41;5033700;28;20059;-83
2021/12/28 10:59:09;;;;;;;1.43;0.60;;;;;;;7.89;100.00;94514.81;5032503;28;20866;-83
2021/12/28 11:01:38;;;;;;;1.00;0.40;;;;;;;7.92;100.00;94516.25;5046567;28;20037;-83
2021/12/28 11:04:12;;;;;;;1.07;0.50;;;;;;;7.95;100.00;94519.31;5038249;28;20033;-83
2021/12/28 11:06:42;;;;;;;1.90;0.80;;;;;;;7.94;100.00;94517.66;5012731;28;20036;-83
2021/12/28 11:09:15;;;;;;;9.23;5.00;;;;;;;7.94;100.00;94522.91;5031880;28;20398;-83
2021/12/28 11:11:41;;;;;;;0.82;0.50;;;;;;;7.96;100.00;94514.88;5024777;28;20131;-83
2021/12/28 11:14:10;;;;;;;1.87;0.90;;;;;;;8.04;100.00;94505.09;5042493;28;20032;-83
2021/12/28 11:16:37;;;;;;;0.77;0.40;;;;;;;8.15;100.00;94495.94;5026212;28;20052;-83
2021/12/28 11:19:06;;;;;;;1.40;0.47;;;;;;;8.20;100.00;94496.19;5053706;28;20090;-83
2021/12/28 11:21:38;;;;;;;4.63;1.90;;;;;;;8.32;100.00;94503.56;5047791;28;20032;-76
2021/12/28 11:24:15;;;;;;;1.40;0.50;;;;;;;8.40;100.00;94499.03;5054940;28;20024;-77
2021/12/28 11:26:48;;;;;;;1.77;0.80;;;;;;;8.37;100.00;94498.56;5026423;28;20102;-76
2021/12/28 11:29:18;;;;;;;4.00;2.07;;;;;;;8.38;100.00;94490.53;5015836;28;20037;-76
2021/12/28 11:31:50;;;;;;;0.97;0.53;;;;;;;8.43;100.00;94492.59;5037240;28;20036;-77
2021/12/28 11:34:24;;;;;;;2.23;0.60;;;;;;;8.41;100.00;94489.34;5008507;28;20039;-76
2021/12/28 11:36:57;;;;;;;3.10;0.80;;;;;;;8.43;100.00;94492.59;5025800;28;20614;-76
2021/12/28 11:39:33;;;;;;;0.85;0.57;;;;;;;8.51;100.00;94484.59;5044792;28;20061;-76
2021/12/28 11:41:59;;;;;;;1.17;0.50;;;;;;;8.54;100.00;94472.94;5054040;28;20036;-76
2021/12/28 11:44:28;;;;;;;2.50;0.97;;;;;;;8.60;100.00;94483.47;5013391;28;20495;-76
2021/12/28 11:46:58;;;;;;;3.47;0.83;;;;;;;8.56;100.00;94482.22;5032399;28;20081;-76
2021/12/28 11:49:28;;;;;;;1.17;0.60;;;;;;;8.56;100.00;94473.56;5042622;28;20033;-77
2021/12/28 11:52:00;;;;;;;2.87;1.10;;;;;;;8.49;100.00;94478.75;5029108;28;20380;-76
2021/12/28 11:54:31;;;;;;;7.50;2.60;;;;;;;8.51;100.00;94474.13;5047984;28;20035;-76
2021/12/28 11:57:10;;;;;;;4.03;1.70;;;;;;;8.43;100.00;94466.41;5034148;28;20489;-75
2021/12/28 11:59:36;;;;;;;4.80;2.33;;;;;;;8.43;100.00;94463.78;5051747;28;20040;-76
2021/12/28 12:02:07;;;;;;;3.67;1.60;;;;;;;8.41;100.00;94457.91;5028359;28;20257;-76
2021/12/28 12:04:33;;;;;;;3.27;1.50;;;;;;;8.36;100.00;94461.09;5030406;28;20052;-76
2021/12/28 12:06:58;;;;;;;4.70;2.27;;;;;;;8.33;100.00;94464.06;5029428;28;20024;-76
2021/12/28 12:09:25;;;;;;;1.87;1.30;;;;;;;8.36;100.00;94452.41;5029308;28;20060;-76
2021/12/28 12:12:33;;;;;;;3.33;1.40;;;;;;;8.25;100.00;94461.59;5010225;28;20487;-75
2021/12/28 12:14:58;;;;;;;5.70;2.47;;;;;;;8.30;100.00;94455.78;5039538;28;20407;-75
2021/12/28 12:17:24;;;;;;;3.47;1.67;;;;;;;8.30;100.00;94445.31;5037071;28;20037;-76
2021/12/28 12:19:50;;;;;;;4.57;2.03;;;;;;;8.36;100.00;94445.38;5027266;28;20115;-75
2021/12/28 12:22:31;;;;;;;2.77;1.17;;;;;;;8.33;100.00;94442.31;5027447;28;20037;-76
2021/12/28 12:25:05;;;;;;;2.50;1.23;;;;;;;8.27;100.00;94446.50;5027757;28;20029;-76
2021/12/28 12:28:02;;;;;;;3.73;0.87;;;;;;;8.32;100.00;94446.75;5030063;28;20032;-76
2021/12/28 12:30:28;;;;;;;3.37;1.37;;;;;;;8.29;100.00;94444.50;5017857;28;20060;-76
2021/12/28 12:32:58;;;;;;;4.83;2.40;;;;;;;8.33;100.00;94445.75;5038484;28;20027;-75
2021/12/28 12:35:45;;;;;;;3.53;1.37;;;;;;;8.34;100.00;94434.25;5032050;28;20041;-75
2021/12/28 12:38:14;;;;;;;3.57;1.60;;;;;;;8.35;100.00;94435.06;5015741;28;20041;-76
2021/12/28 12:41:10;;;;;;;3.13;1.20;;;;;;;8.37;100.00;94440.94;5023987;28;20637;-75
2021/12/28 12:43:36;;;;;;;3.20;1.40;;;;;;;8.30;100.00;94430.41;5043335;28;20036;-76
2021/12/28 12:46:29;;;;;;;2.00;1.03;;;;;;;8.38;100.00;94429.47;5035363;28;20028;-76
2021/12/28 12:48:54;;;;;;;4.23;1.90;;;;;;;8.34;100.00;94425.59;5026603;28;20033;-76
2021/12/28 12:51:29;;;;;;;6.90;2.50;;;;;;;8.38;100.00;94425.03;5013046;28;20203;-75
2021/12/28 12:54:01;;;;;;;8.03;2.77;;;;;;;8.38;100.00;94432.09;5043334;28;20401;-76
2021/12/28 12:56:44;;;;;;;10.43;4.00;;;;;;;8.38;100.00;94432.09;5047005;28;20040;-75
2021/12/28 12:59:19;;;;;;;9.63;4.25;;;;;;;8.35;100.00;94427.22;5033966;28;20041;-75
2021/12/28 13:01:48;;;;;;;5.53;2.97;;;;;;;8.26;100.00;94424.72;5027872;28;20039;-75
2021/12/28 13:04:26;;;;;;;4.20;2.07;;;;;;;8.24;100.00;94425.91;5046201;28;20061;-76
2021/12/28 13:07:07;;;;;;;4.17;1.30;;;;;;;8.27;100.00;94420.31;5028371;28;20064;-76
2021/12/28 13:09:39;;;;;;;3.63;1.50;;;;;;;8.25;100.00;94428.38;5035553;28;20068;-76
2021/12/28 13:12:07;;;;;;;12.40;8.93;;;;;;;8.31;100.00;94416.31;5033627;28;20547;-75
2021/12/28 13:14:33;;;;;;;5.90;2.97;;;;;;;8.30;100.00;94417.31;5032977;28;20037;-75
2021/12/28 13:17:14;;;;;;;2.20;0.80;;;;;;;8.29;100.00;94425.38;5039400;28;20486;-75
2021/12/28 13:20:06;;;;;;;2.30;0.70;;;;;;;8.32;100.00;94417.13;5030570;28;20686;-75
2021/12/28 13:22:43;;;;;;;2.43;0.70;;;;;;;8.31;100.00;94411.06;5018941;28;20071;-76
2021/12/28 13:25:12;;;;;;;1.43;0.80;;;;;;;8.30;100.00;94417.31;5034960;28;20041;-76
2021/12/28 13:27:45;;;;;;;0.57;0.50;;;;;;;8.31;100.00;94411.06;5016587;28;20442;-76
2021/12/28 13:30:13;;;;;;;1.73;0.97;;;;;;;8.32;100.00;94412.69;5021206;28;20056;-76
2021/12/28 13:32:41;;;;;;;2.20;1.20;;;;;;;8.35;100.00;94411.50;5016421;28;20021;-76
2021/12/28 13:35:21;;;;;;;4.43;2.03;;;;;;;8.33;100.00;94403.84;5013474;28;20383;-76
2021/12/28 13:38:03;;;;;;;3.63;1.57;;;;;;;8.33;100.00;94398.59;5047471;28;20467;-76
2021/12/28 13:40:41;;;;;;;2.57;1.00;;;;;;;8.39;100.00;94386.59;5043227;28;20747;-76
2021/12/28 13:43:21;;;;;;;3.23;1.50;;;;;;;8.38;100.00;94391.00;5032382;28;20029;-76
2021/12/28 13:45:57;;;;;;;3.83;1.50;;;;;;;8.38;100.00;94384.94;5016284;28;20477;-76
2021/12/28 13:48:41;;;;;;;5.47;2.73;;;;;;;8.35;100.00;94383.50;5031748;28;20049;-76
2021/12/28 13:51:11;;;;;;;5.20;2.40;;;;;;;8.34;100.00;94389.72;5033054;28;20044;-76
2021/12/28 13:53:48;;;;;;;5.77;2.90;;;;;;;8.34;100.00;94387.13;5026755;28;20039;-76
2021/12/28 13:56:38;;;;;;;4.77;2.00;;;;;;;8.36;100.00;94389.56;5040784;28;20042;-76
2021/12/28 13:59:11;;;;;;;4.30;1.73;;;;;;;8.33;100.00;94385.50;5041850;28;20033;-76
2021/12/28 14:01:41;;;;;;;4.83;1.67;;;;;;;8.38;100.00;94380.53;5054487;28;20443;-76
2021/12/28 14:04:16;;;;;;;4.27;1.73;;;;;;;8.36;100.00;94386.94;5046605;28;20086;-76
2021/12/28 14:06:48;;;;;;;5.07;2.33;;;;;;;8.38;100.00;94384.94;5038737;28;20037;-76
2021/12/28 14:09:22;;;;;;;5.77;2.53;;;;;;;8.33;100.00;94374.22;5024071;28;20122;-76
2021/12/28 14:11:56;;;;;;;3.77;2.10;;;;;;;8.34;100.00;94375.84;5037544;28;20029;-76
2021/12/28 14:14:24;;;;;;;5.03;1.67;;;;;;;8.33;100.00;94382.09;5040477;28;20693;-76
2021/12/28 14:16:54;;;;;;;3.60;1.60;;;;;;;8.40;100.00;94378.53;5015690;28;20044;-76
2021/12/28 14:19:20;;;;;;;4.07;1.80;;;;;;;8.41;100.00;94384.56;5032553;28;20048;-76
2021/12/28 14:21:47;;;;;;;1.77;0.83;;;;;;;8.44;100.00;94355.38;5032259;28;20060;-76
2021/12/28 14:24:13;;;;;;;28.27;18.40;;;;;;;8.37;100.00;94363.16;5039797;28;20021;-76
2021/12/28 14:26:41;;;;;;;2.43;1.00;;;;;;;8.44;100.00;94378.94;5062067;28;20024;-76
2021/12/28 14:29:09;;;;;;;2.27;1.10;;;;;;;8.38;100.00;94379.72;5032648;28;20038;-76
2021/12/28 14:31:40;;;;;;;1.30;0.67;;;;;;;8.44;100.00;94382.38;5024366;28;20037;-76
2021/12/28 14:34:06;;;;;;;1.83;0.87;;;;;;;8.47;100.00;94389.06;5036198;28;20056;-76
2021/12/28 14:36:39;;;;;;;0.83;0.50;;;;;;;8.52;100.00;94373.59;5044048;28;20535;-76
2021/12/28 14:39:21;;;;;;;2.60;0.70;;;;;;;8.54;100.00;94376.00;5037924;28;20080;-76
2021/12/28 14:41:49;;;;;;;1.10;0.60;;;;;;;8.58;100.00;94378.03;5032002;28;20050;-76
2021/12/28 14:44:31;;;;;;;3.60;1.93;;;;;;;8.54;100.00;94379.41;5045332;28;20506;-76
2021/12/28 14:47:03;;;;;;;1.97;0.70;;;;;;;8.54;100.00;94368.94;5050491;28;20033;-76
2021/12/28 14:49:31;;;;;;;3.60;0.90;;;;;;;8.56;100.00;94366.94;5034201;28;20025;-76
2021/12/28 14:52:16;;;;;;;1.47;0.63;;;;;;;8.46;100.00;94363.88;5019806;28;20074;-76
2021/12/28 14:55:10;;;;;;;2.57;0.83;;;;;;;8.37;100.00;94357.94;5031171;28;20228;-76
2021/12/28 14:57:41;;;;;;;5.03;1.40;;;;;;;8.32;100.00;94349.03;5031461;28;20633;-76
2021/12/28 15:00:16;;;;;;;3.87;1.33;;;;;;;8.38;100.00;94366.63;5040832;28;20124;-76
2021/12/28 15:02:55;;;;;;;3.80;1.70;;;;;;;8.35;100.00;94367.81;5045370;28;20033;-77
2021/12/28 15:05:25;;;;;;;7.07;2.50;;;;;;;8.30;100.00;94372.78;5029886;28;20832;-77
2021/12/28 15:07:57;;;;;;;4.27;1.70;;;;;;;8.29;100.00;94373.00;5026604;28;20487;-76
2021/12/28 15:10:24;;;;;;;6.05;2.38;;;;;;;8.29;100.00;94367.75;5042551;28;20116;-77
2021/12/28 15:12:51;;;;;;;7.63;2.47;;;;;;;8.22;100.00;94371.13;5016006;28;20752;-77
2021/12/28 15:15:20;;;;;;;5.77;3.17;;;;;;;8.20;100.00;94383.59;5037387;28;20490;-77
2021/12/28 15:17:49;;;;;;;2.97;1.13;;;;;;;8.16;100.00;94382.34;5014813;28;20065;-76
2021/12/28 15:20:16;;;;;;;2.33;0.90;;;;;;;8.12;100.00;94381.13;5040152;28;20123;-77
2021/12/28 15:22:42;;;;;;;4.37;1.33;;;;;;;8.15;100.00;94380.75;5042193;28;20041;-76
2021/12/28 15:25:10;;;;;;;3.00;1.00;;;;;;;8.10;100.00;94393.59;5017198;28;20072;-76
2021/12/28 15:27:38;;;;;;;7.53;1.70;;;;;;;8.07;100.00;94396.56;5016779;28;20502;-76
2021/12/28 15:30:11;;;;;;;2.17;0.60;;;;;;;8.06;100.00;94408.06;5031601;28;20044;-76
2021/12/28 15:32:37;;;;;;;;;;;;;;;8.04;100.00;94415.28;5038044;28;20043;-76
2021/12/28 15:35:03;;;;;;;2.30;0.90;;;;;;;8.07;100.00;94433.22;5014527;28;19909;-76
2021/12/28 15:37:33;;;;;;;5.43;1.70;;;;;;;8.03;100.00;94435.41;5024693;28;20041;-76
2021/12/28 15:39:59;;;;;;;6.70;2.37;;;;;;;7.98;100.00;94439.56;5024316;28;20033;-76
2021/12/28 15:42:31;;;;;;;10.40;7.33;;;;;;;8.00;100.00;94442.81;5036847;28;20029;-76
2021/12/28 15:44:58;;;;;;;7.72;4.43;;;;;;;7.96;100.00;94459.91;5012970;28;20122;-76
2021/12/28 15:47:25;;;;;;;4.43;1.80;;;;;;;7.92;100.00;94474.38;5024702;28;20775;-76
2021/12/28 15:49:51;;;;;;;1.47;0.50;;;;;;;7.76;100.00;94478.84;5028629;28;20044;-76
2021/12/28 15:52:17;;;;;;;4.20;0.40;;;;;;;7.09;100.00;94489.47;5028053;28;20399;-76
2021/12/28 15:54:42;;;;;;;1.27;0.50;;;;;;;7.04;100.00;94520.56;5056605;28;20037;-76
2021/12/28 15:57:08;;;;;;;2.47;0.50;;;;;;;6.87;100.00;94519.09;5017787;28;20031;-76
2021/12/28 15:59:34;;;;;;;1.77;0.90;;;;;;;6.81;100.00;94550.19;5019263;28;20033;-76
2021/12/28 16:02:00;;;;;;;2.73;0.63;;;;;;;6.79;100.00;94546.13;5038181;28;20055;-76
2021/12/28 16:04:27;;;;;;;3.80;0.70;;;;;;;6.69;100.00;94562.06;5016562;28;20551;-77
2021/12/28 16:06:53;;;;;;;6.57;1.80;;;;;;;6.57;100.00;94572.13;5038887;28;20477;-76
2021/12/28 16:09:18;;;;;;;2.27;0.77;;;;;;;6.46;100.00;94592.59;5025046;28;20036;-76
2021/12/28 16:11:44;;;;;;;2.97;0.97;;;;;;;6.38;100.00;94594.28;5040529;28;20028;-76
2021/12/28 16:14:12;;;;;;;7.43;1.40;;;;;;;6.25;100.00;94593.22;5015287;28;20032;-75
2021/12/28 16:16:38;;;;;;;4.77;1.20;;;;;;;6.14;100.00;94600.47;5037957;28;20036;-76
2021/12/28 16:19:03;;;;;;;9.50;2.03;;;;;;;6.07;100.00;94601.31;5035150;28;20037;-76
2021/12/28 16:21:29;;;;;;;9.30;2.43;;;;;;;6.00;100.00;94609.03;5029677;28;20036;-76
2021/12/28 16:23:55;;;;;;;9.27;1.40;;;;;;;5.87;100.00;94608.75;5011176;28;20044;-76
2021/12/28 16:26:22;;;;;;;9.30;1.87;;;;;;;5.89;100.00;94607.56;5011681;28;20612;-76
2021/12/28 16:28:53;;;;;;;6.47;1.47;;;;;;;5.76;100.00;94622.94;5019297;28;20037;-76
2021/12/28 16:31:25;;;;;;;14.53;5.77;;;;;;;5.74;100.00;94611.88;5027356;28;20052;-76
2021/12/28 16:33:55;;;;;;;8.88;1.92;;;;;;;5.63;100.00;94620.06;5023707;28;20051;-76
2021/12/28 16:36:21;;;;;;;9.27;2.03;;;;;;;5.61;100.00;94615.03;5038853;28;20117;-76
2021/12/28 16:38:52;;;;;;;16.20;4.67;;;;;;;5.63;100.00;94605.25;5020197;28;20567;-76
2021/12/28 16:41:19;;;;;;;10.70;4.77;;;;;;;5.72;100.00;94620.84;5029191;28;20401;-76
2021/12/28 16:43:46;;;;;;;9.20;2.30;;;;;;;5.74;100.00;94630.16;5019428;28;20546;-76
2021/12/28 16:46:12;;;;;;;9.67;1.90;;;;;;;5.68;100.00;94628.19;5057496;28;20024;-76
2021/12/28 16:48:38;;;;;;;8.53;1.37;;;;;;;5.64;100.00;94645.97;5039444;28;20080;-76
2021/12/28 16:51:05;;;;;;;13.10;2.93;;;;;;;5.65;100.00;94644.19;5030149;28;20039;-76
2021/12/28 16:53:31;;;;;;;11.43;3.03;;;;;;;5.59;100.00;94668.31;5014719;28;20881;-76
2021/12/28 16:55:57;;;;;;;10.70;2.40;;;;;;;5.55;100.00;94667.03;5037346;28;20029;-76
2021/12/28 16:58:24;;;;;;;11.27;3.13;;;;;;;5.48;100.00;94687.75;5028816;28;20400;-77
2021/12/28 17:00:54;;;;;;;7.80;1.60;;;;;;;5.43;100.00;94690.00;5039334;28;20071;-76
2021/12/28 17:03:25;;;;;;;6.90;1.63;;;;;;;5.37;100.00;94680.28;5023709;28;20029;-76
2021/12/28 17:05:51;;;;;;;8.77;2.10;;;;;;;5.31;100.00;94681.75;5029318;28;20112;-76
2021/12/28 17:08:17;;;;;;;7.90;1.60;;;;;;;5.34;100.00;94670.97;5036979;28;20108;-76
2021/12/28 17:10:48;;;;;;;8.53;2.53;;;;;;;5.25;100.00;94676.38;5046040;28;20094;-76
2021/12/28 17:13:15;;;;;;;9.07;2.37;;;;;;;5.22;100.00;94682.72;5023403;28;20029;-76